Salida, California
Current Conditions -  °F | °C
As of 12:53 AM on Friday 24 Oct 2014 (Local Time) from KMOD Reporting Station
Clear Clear  
Wind Chill: 59°   Ceiling: Unl
Heat Index: 59°   Visibility: 10mi
Dew Point: 54°   Wind: 13mph
Humidity: 83%   Direction: 290°WNW
Pressure: 29.99"   Gusts: NA
Location:  37.71°N, 121.09°W
Report Text: KMOD 240753Z AUTO 29011KT 10SM CLR 15/12 A2999 RMK AO2 SLP157 T01500122 402610111
Loading
Personal Weather Stations






























Interactive Weather Map New forecast layout! Learn more

10-Day Weather Forecast

Advertisements
Track Severe Weather on mobile